createdAt,value
2018-11-12T00:00:16.208Z,18.07
2018-11-12T00:02:46.780Z,19.27
2018-11-12T00:05:15.877Z,16.57
2018-11-12T00:07:44.709Z,18.90
2018-11-12T00:10:13.511Z,17.33
2018-11-12T00:12:42.327Z,16.57
2018-11-12T00:15:12.258Z,17.30
2018-11-12T00:17:41.084Z,16.60
2018-11-12T00:20:11.262Z,17.40
2018-11-12T00:22:40.089Z,13.63
2018-11-12T00:25:09.068Z,17.97
2018-11-12T00:27:38.237Z,14.87
2018-11-12T00:30:10.057Z,15.70
2018-11-12T00:32:38.945Z,14.63
2018-11-12T00:35:08.598Z,14.07
2018-11-12T00:37:37.447Z,16.13
2018-11-12T00:40:07.660Z,16.83
2018-11-12T00:42:36.560Z,15.70
2018-11-12T00:45:05.952Z,14.20
2018-11-12T00:47:34.741Z,14.40
2018-11-12T00:50:03.656Z,14.23
2018-11-12T00:52:32.486Z,16.20
2018-11-12T00:55:01.264Z,17.13
2018-11-12T00:57:30.096Z,19.93
2018-11-12T00:59:58.937Z,16.80
2018-11-12T01:02:27.782Z,14.77
2018-11-12T01:04:56.659Z,18.97
2018-11-12T01:07:25.447Z,19.13
2018-11-12T01:09:54.396Z,19.07
2018-11-12T01:12:23.298Z,17.97
2018-11-12T01:14:52.114Z,19.77
2018-11-12T01:17:20.937Z,15.00
2018-11-12T01:19:49.748Z,17.00
2018-11-12T01:22:18.591Z,14.30
2018-11-12T01:24:47.333Z,16.57
2018-11-12T01:27:16.166Z,16.77
2018-11-12T01:29:45.002Z,15.50
2018-11-12T01:32:13.853Z,15.63
2018-11-12T01:34:42.683Z,17.23
2018-11-12T01:37:11.506Z,16.10
2018-11-12T01:39:40.263Z,18.60
2018-11-12T01:42:09.168Z,21.40
2018-11-12T01:44:37.950Z,18.63
2018-11-12T01:47:06.811Z,21.00
2018-11-12T01:49:35.571Z,18.20
2018-11-12T01:52:04.487Z,17.37
2018-11-12T01:54:33.300Z,18.63
2018-11-12T01:57:02.081Z,19.10
2018-11-12T01:59:30.891Z,16.57
2018-11-12T02:01:59.771Z,20.03
2018-11-12T02:04:28.570Z,15.57
2018-11-12T02:06:57.387Z,18.20
2018-11-12T02:09:26.256Z,18.37
2018-11-12T02:11:55.022Z,16.20
2018-11-12T02:14:23.928Z,17.57
2018-11-12T02:16:52.747Z,17.83
2018-11-12T02:19:21.661Z,16.23
2018-11-12T02:21:50.478Z,16.07
2018-11-12T02:24:19.322Z,19.23
2018-11-12T02:26:48.145Z,14.53
2018-11-12T02:29:16.992Z,15.67
2018-11-12T02:31:45.784Z,18.20
2018-11-12T02:34:14.727Z,18.07
2018-11-12T02:36:43.544Z,18.87
2018-11-12T02:39:12.376Z,19.67
2018-11-12T02:41:41.285Z,16.80
2018-11-12T02:44:10.085Z,20.57
2018-11-12T02:46:38.949Z,20.53
2018-11-12T02:49:08.008Z,17.13
2018-11-12T02:51:36.819Z,21.27
2018-11-12T02:54:05.698Z,19.33
2018-11-12T02:56:35.245Z,19.47
2018-11-12T02:59:04.107Z,21.80
2018-11-12T03:01:32.935Z,25.07
2018-11-12T03:04:01.733Z,22.40
2018-11-12T03:06:30.541Z,26.07
2018-11-12T03:08:59.354Z,21.57
2018-11-12T03:11:28.213Z,22.53
2018-11-12T03:13:57.006Z,19.90
2018-11-12T03:16:25.839Z,20.93
2018-11-12T03:18:54.684Z,24.47
2018-11-12T03:21:23.516Z,22.27
2018-11-12T03:23:52.337Z,24.80
2018-11-12T03:26:21.163Z,20.00
2018-11-12T03:28:50.001Z,21.73
2018-11-12T03:31:18.880Z,21.17
2018-11-12T03:33:47.676Z,18.47
2018-11-12T03:36:16.541Z,23.70
2018-11-12T03:38:45.406Z,24.90
2018-11-12T03:41:14.203Z,20.47
2018-11-12T03:43:43.041Z,19.20
2018-11-12T03:46:11.884Z,22.87
2018-11-12T03:48:40.684Z,24.70
2018-11-12T03:51:09.504Z,22.20
2018-11-12T03:53:38.336Z,27.20
2018-11-12T03:56:07.802Z,23.97
2018-11-12T03:58:36.910Z,22.30
2018-11-12T04:01:06.320Z,25.70
2018-11-12T04:03:35.172Z,24.63
2018-11-12T04:06:03.970Z,20.30
2018-11-12T04:08:34.279Z,23.57
2018-11-12T04:11:03.082Z,22.97
2018-11-12T04:13:31.957Z,27.30
2018-11-12T04:16:00.781Z,23.50
2018-11-12T04:18:29.620Z,23.37
2018-11-12T04:20:58.477Z,23.53
2018-11-12T04:23:27.274Z,21.63
2018-11-12T04:25:56.106Z,22.10
2018-11-12T04:28:24.893Z,19.03
2018-11-12T04:30:53.763Z,19.93
2018-11-12T04:33:22.521Z,21.87
2018-11-12T04:35:51.357Z,24.70
2018-11-12T04:38:20.193Z,20.33
2018-11-12T04:40:49.086Z,22.20
2018-11-12T04:43:17.903Z,21.90
2018-11-12T04:45:46.785Z,25.77
2018-11-12T04:48:15.582Z,19.17
2018-11-12T04:50:44.420Z,22.83
2018-11-12T04:53:13.241Z,23.23
2018-11-12T04:55:42.095Z,21.43
2018-11-12T04:58:10.915Z,22.00
2018-11-12T05:00:39.766Z,23.50
2018-11-12T05:03:08.597Z,25.67
2018-11-12T05:05:37.443Z,22.20
2018-11-12T05:08:06.382Z,26.63
2018-11-12T05:10:35.163Z,22.97
2018-11-12T05:13:04.031Z,20.47
2018-11-12T05:15:32.838Z,25.37
2018-11-12T05:18:01.639Z,25.33
2018-11-12T05:20:30.890Z,25.47
2018-11-12T05:22:59.710Z,24.60
2018-11-12T05:25:28.577Z,21.50
2018-11-12T05:27:57.470Z,25.20
2018-11-12T05:30:29.213Z,24.07
2018-11-12T05:32:58.535Z,23.10
2018-11-12T05:35:28.544Z,21.27
2018-11-12T05:37:57.472Z,25.07
2018-11-12T05:40:28.528Z,27.37
2018-11-12T05:42:57.482Z,25.60
2018-11-12T05:45:28.523Z,22.10
2018-11-12T05:47:57.389Z,26.93
2018-11-12T05:50:27.450Z,21.83
2018-11-12T05:52:58.650Z,20.33
2018-11-12T05:55:28.425Z,25.17
2018-11-12T05:57:57.411Z,24.87
2018-11-12T06:00:32.268Z,28.17
2018-11-12T06:03:01.538Z,25.10
2018-11-12T06:05:30.588Z,30.07
2018-11-12T06:07:59.445Z,25.40
2018-11-12T06:10:29.492Z,22.97
2018-11-12T06:12:58.319Z,28.17
2018-11-12T06:15:27.222Z,25.40
2018-11-12T06:17:56.027Z,26.47
2018-11-12T06:20:28.155Z,26.70
2018-11-12T06:22:56.988Z,25.30
2018-11-12T06:25:27.235Z,22.33
2018-11-12T06:27:56.306Z,26.20
2018-11-12T06:30:26.605Z,25.33
2018-11-12T06:32:55.418Z,25.67
2018-11-12T06:35:24.313Z,20.30
2018-11-12T06:37:53.742Z,30.90
2018-11-12T06:40:23.706Z,22.90
2018-11-12T06:42:53.142Z,26.80
2018-11-12T06:45:23.249Z,24.07
2018-11-12T06:47:52.904Z,18.83
2018-11-12T06:50:23.011Z,23.93
2018-11-12T06:52:53.033Z,20.00
2018-11-12T06:55:22.272Z,22.70
2018-11-12T06:57:51.437Z,22.23
2018-11-12T07:00:23.416Z,24.57
2018-11-12T07:02:52.475Z,24.57
2018-11-12T07:05:21.579Z,24.50
2018-11-12T07:07:50.496Z,24.10
2018-11-12T07:10:20.706Z,23.93
2018-11-12T07:12:50.468Z,24.93
2018-11-12T07:15:20.601Z,27.87
2018-11-12T07:17:49.411Z,25.07
2018-11-12T07:20:20.011Z,27.43
2018-11-12T07:22:49.197Z,27.73
2018-11-12T07:25:19.416Z,21.27
2018-11-12T07:27:48.342Z,26.17
2018-11-12T07:30:20.382Z,26.13
2018-11-12T07:32:50.114Z,21.90
2018-11-12T07:35:19.415Z,21.60
2018-11-12T07:37:49.431Z,24.13
2018-11-12T07:40:18.761Z,21.93
2018-11-12T07:42:47.777Z,25.83
2018-11-12T07:45:18.867Z,16.77
2018-11-12T07:47:48.662Z,24.00
2018-11-12T07:50:18.751Z,20.40
2018-11-12T07:52:47.636Z,32.67
2018-11-12T07:55:18.225Z,23.87
2018-11-12T07:57:47.995Z,20.43
2018-11-12T08:00:21.116Z,25.13
2018-11-12T08:02:50.938Z,20.00
2018-11-12T08:05:19.810Z,19.07
2018-11-12T08:07:48.579Z,22.37
2018-11-12T08:10:18.726Z,21.87
2018-11-12T08:12:47.995Z,18.43
2018-11-12T08:15:18.967Z,22.77
2018-11-12T08:17:48.032Z,19.47
2018-11-12T08:20:18.079Z,18.43
2018-11-12T08:22:48.093Z,18.23
2018-11-12T08:25:16.950Z,20.63
2018-11-12T08:27:46.338Z,14.97
2018-11-12T08:30:17.922Z,16.13
2018-11-12T08:32:47.862Z,18.90
2018-11-12T08:35:16.989Z,15.97
2018-11-12T08:37:46.468Z,16.20
2018-11-12T08:40:16.647Z,14.93
2018-11-12T08:42:45.595Z,14.43
2018-11-12T08:45:14.719Z,20.27
2018-11-12T08:47:45.034Z,18.60
2018-11-12T08:50:15.825Z,17.63
2018-11-12T08:52:45.758Z,16.87
2018-11-12T08:55:18.784Z,20.20
2018-11-12T08:57:50.181Z,17.20
2018-11-12T09:00:22.182Z,14.43
2018-11-12T09:02:51.288Z,16.30
2018-11-12T09:05:21.197Z,12.70
2018-11-12T09:07:51.451Z,14.63
2018-11-12T09:10:22.101Z,14.60
2018-11-12T09:12:51.011Z,15.50
2018-11-12T09:15:20.055Z,13.13
2018-11-12T09:17:49.344Z,12.60
2018-11-12T09:20:20.469Z,12.20
2018-11-12T09:22:49.247Z,11.73
2018-11-12T09:25:19.330Z,12.33
2018-11-12T09:27:48.140Z,12.67
2018-11-12T09:30:25.409Z,13.53
2018-11-12T09:32:54.219Z,10.80
2018-11-12T09:35:27.379Z,12.77
2018-11-12T09:37:57.032Z,11.97
2018-11-12T09:40:29.030Z,13.73
2018-11-12T09:42:57.858Z,10.53
2018-11-12T09:45:26.729Z,10.23
2018-11-12T09:47:55.657Z,11.77
2018-11-12T09:50:25.563Z,11.23
2018-11-12T09:52:55.455Z,13.03
2018-11-12T09:55:25.469Z,12.03
2018-11-12T09:57:56.074Z,10.87
2018-11-12T10:00:25.097Z,12.63
2018-11-12T10:02:54.605Z,14.37
2018-11-12T10:05:23.896Z,10.67
2018-11-12T10:07:57.323Z,10.93
2018-11-12T10:10:32.412Z,12.50
2018-11-12T10:13:00.757Z,11.80
2018-11-12T10:15:30.141Z,9.30
2018-11-12T10:17:58.820Z,10.77
2018-11-12T10:20:25.369Z,13.70
2018-11-12T10:22:54.258Z,9.87
2018-11-12T10:25:24.110Z,11.57
2018-11-12T10:27:52.952Z,11.70
2018-11-12T10:30:21.810Z,11.37
2018-11-12T10:32:50.662Z,14.10
2018-11-12T10:35:19.493Z,12.93
2018-11-12T10:37:48.305Z,13.27
2018-11-12T10:40:18.429Z,14.60
2018-11-12T10:42:47.371Z,13.27
2018-11-12T10:45:16.557Z,12.80
2018-11-12T10:47:46.282Z,14.40
2018-11-12T10:50:15.315Z,11.73
2018-11-12T10:52:44.134Z,13.47
2018-11-12T10:55:15.576Z,14.33
2018-11-12T10:57:44.901Z,14.00
2018-11-12T11:00:21.700Z,12.27
2018-11-12T11:02:56.002Z,14.00
2018-11-12T11:05:24.892Z,12.03
2018-11-12T11:07:54.394Z,14.73
2018-11-12T11:10:24.855Z,11.67
2018-11-12T11:12:53.896Z,12.73
2018-11-12T11:15:22.906Z,17.13
2018-11-12T11:17:51.793Z,13.00
2018-11-12T11:20:20.619Z,13.07
2018-11-12T11:22:49.589Z,14.73
2018-11-12T11:25:18.429Z,13.10
2018-11-12T11:27:47.330Z,13.90
2018-11-12T11:30:17.233Z,13.07
2018-11-12T11:32:46.220Z,13.93
2018-11-12T11:35:16.366Z,12.43
2018-11-12T11:37:45.215Z,11.30
2018-11-12T11:40:17.022Z,11.20
2018-11-12T11:42:45.869Z,12.60
2018-11-12T11:45:15.760Z,13.80
2018-11-12T11:47:45.375Z,11.77
2018-11-12T11:50:15.761Z,11.90
2018-11-12T11:52:44.927Z,11.97
2018-11-12T11:55:15.223Z,10.20
2018-11-12T11:57:44.277Z,11.20
2018-11-12T12:00:16.190Z,9.60
2018-11-12T12:02:45.935Z,9.93
2018-11-12T12:05:15.994Z,10.20
2018-11-12T12:07:44.869Z,10.13
2018-11-12T12:10:14.493Z,9.40
2018-11-12T12:12:44.001Z,10.27
2018-11-12T12:15:16.940Z,8.80
2018-11-12T12:17:46.028Z,10.00
2018-11-12T12:20:20.191Z,8.83
2018-11-12T12:22:49.113Z,8.80
2018-11-12T12:25:18.355Z,9.93
2018-11-12T12:27:47.735Z,9.67
2018-11-12T12:30:19.110Z,9.83
2018-11-12T12:32:48.856Z,9.53
2018-11-12T12:35:17.761Z,14.50
2018-11-12T12:37:46.993Z,7.53
2018-11-12T12:40:17.088Z,10.30
2018-11-12T12:42:45.950Z,7.93
2018-11-12T12:45:16.369Z,9.70
2018-11-12T12:47:45.777Z,8.47
2018-11-12T12:50:15.596Z,13.43
2018-11-12T12:52:44.468Z,8.50
2018-11-12T12:55:14.367Z,10.33
2018-11-12T12:57:44.031Z,8.37
2018-11-12T13:00:20.859Z,10.97
2018-11-12T13:02:49.878Z,9.93
2018-11-12T13:05:18.907Z,8.30
2018-11-12T13:07:47.778Z,11.40
2018-11-12T13:10:17.969Z,11.80
2018-11-12T13:12:46.928Z,8.53
2018-11-12T13:15:17.897Z,9.53
2018-11-12T13:17:48.470Z,9.07
2018-11-12T13:20:18.719Z,9.77
2018-11-12T13:22:48.165Z,7.83
2018-11-12T13:25:17.066Z,9.20
2018-11-12T13:27:46.482Z,8.30
2018-11-12T13:30:16.993Z,7.97
2018-11-12T13:32:46.415Z,8.63
2018-11-12T13:35:16.560Z,7.03
2018-11-12T13:37:46.345Z,9.30
2018-11-12T13:40:17.630Z,8.37
2018-11-12T13:42:47.808Z,10.53
2018-11-12T13:45:16.782Z,12.23
2018-11-12T13:47:46.057Z,13.37
2018-11-12T13:50:16.201Z,10.43
2018-11-12T13:52:46.332Z,12.97
2018-11-12T13:55:16.352Z,7.87
2018-11-12T13:57:45.527Z,9.73
2018-11-12T14:00:15.602Z,9.00
2018-11-12T14:02:45.463Z,9.90
2018-11-12T14:05:15.861Z,10.53
2018-11-12T14:07:45.205Z,8.90
2018-11-12T14:10:15.517Z,9.90
2018-11-12T14:12:45.548Z,7.80
2018-11-12T14:15:16.941Z,7.20
2018-11-12T14:17:46.141Z,8.13
2018-11-12T14:20:15.006Z,8.27
2018-11-12T14:22:43.929Z,8.60
2018-11-12T14:25:14.234Z,11.90
2018-11-12T14:27:43.407Z,12.60
2018-11-12T14:30:14.509Z,9.63
2018-11-12T14:32:43.364Z,11.40
2018-11-12T14:35:12.958Z,8.27
2018-11-12T14:37:42.882Z,10.07
2018-11-12T14:40:12.953Z,8.43
2018-11-12T14:42:42.358Z,11.20
2018-11-12T14:45:13.636Z,9.50
2018-11-12T14:47:42.930Z,10.33
2018-11-12T14:50:11.832Z,10.30
2018-11-12T14:52:40.766Z,9.50
2018-11-12T14:55:11.459Z,9.67
2018-11-12T14:57:40.384Z,11.77
2018-11-12T15:00:12.320Z,10.17
2018-11-12T15:02:41.142Z,11.60
2018-11-12T15:05:10.274Z,11.70
2018-11-12T15:07:39.330Z,13.37
2018-11-12T15:10:09.769Z,10.97
2018-11-12T15:12:38.597Z,11.27
2018-11-12T15:15:08.965Z,10.17
2018-11-12T15:17:38.389Z,10.53
2018-11-12T15:20:09.243Z,10.90
2018-11-12T15:22:38.209Z,11.77
2018-11-12T15:25:10.676Z,13.40
2018-11-12T15:27:39.465Z,12.23
2018-11-12T15:30:12.978Z,10.37
2018-11-12T15:32:42.337Z,12.10
2018-11-12T15:35:12.340Z,10.53
2018-11-12T15:37:41.837Z,11.50
2018-11-12T15:40:11.560Z,12.93
2018-11-12T15:42:40.984Z,10.37
2018-11-12T15:45:12.392Z,11.10
2018-11-12T15:47:41.378Z,12.40
2018-11-12T15:50:13.867Z,11.27
2018-11-12T15:52:43.094Z,13.53
2018-11-12T15:55:12.059Z,12.40
2018-11-12T15:57:41.164Z,13.77
2018-11-12T16:00:13.191Z,12.93
2018-11-12T16:02:42.086Z,12.37
2018-11-12T16:05:11.733Z,13.23
2018-11-12T16:07:40.624Z,13.40
2018-11-12T16:10:11.675Z,15.07
2018-11-12T16:12:41.029Z,13.10
2018-11-12T16:15:10.550Z,12.67
2018-11-12T16:17:40.310Z,13.80
2018-11-12T16:20:11.846Z,13.77
2018-11-12T16:22:40.706Z,15.60
2018-11-12T16:25:09.592Z,15.97
2018-11-12T16:27:38.383Z,15.30
2018-11-12T16:30:08.380Z,16.73
2018-11-12T16:32:37.428Z,16.07
2018-11-12T16:35:07.952Z,15.87
2018-11-12T16:37:36.809Z,17.00
2018-11-12T16:40:05.916Z,18.73
2018-11-12T16:42:34.782Z,15.37
2018-11-12T16:45:03.902Z,14.27
2018-11-12T16:47:32.859Z,15.53
2018-11-12T16:50:01.679Z,13.73
2018-11-12T16:52:30.563Z,13.00
2018-11-12T16:54:59.365Z,14.17
2018-11-12T16:57:28.261Z,15.57
2018-11-12T16:59:57.138Z,11.00
2018-11-12T17:02:26.047Z,13.97
2018-11-12T17:04:54.872Z,13.37
2018-11-12T17:07:23.752Z,11.83
2018-11-12T17:09:52.569Z,12.47
2018-11-12T17:12:21.805Z,16.13
2018-11-12T17:14:50.652Z,10.73
2018-11-12T17:17:19.767Z,12.03
2018-11-12T17:19:48.604Z,13.03
2018-11-12T17:22:17.473Z,12.23
2018-11-12T17:24:46.441Z,12.73
2018-11-12T17:27:15.351Z,12.37
2018-11-12T17:29:44.245Z,11.27
2018-11-12T17:32:13.165Z,11.20
2018-11-12T17:34:41.977Z,13.33
2018-11-12T17:37:10.932Z,12.43
2018-11-12T17:39:39.817Z,13.73
2018-11-12T17:42:08.760Z,14.80
2018-11-12T17:44:37.741Z,12.40
2018-11-12T17:47:06.593Z,14.17
2018-11-12T17:49:35.433Z,13.73
2018-11-12T17:52:04.302Z,13.80
2018-11-12T17:54:33.197Z,13.27
2018-11-12T17:57:02.015Z,15.07
2018-11-12T17:59:30.943Z,15.27
2018-11-12T18:02:01.909Z,14.13
2018-11-12T18:04:30.749Z,14.00
2018-11-12T18:06:59.575Z,14.93
2018-11-12T18:09:28.509Z,12.13
2018-11-12T18:11:57.315Z,13.33
2018-11-12T18:14:26.512Z,16.73
2018-11-12T18:16:55.425Z,13.10
2018-11-12T18:19:24.340Z,15.77
2018-11-12T18:21:53.230Z,14.70
2018-11-12T18:24:22.249Z,15.83
2018-11-12T18:26:51.363Z,16.63
2018-11-12T18:29:20.268Z,13.37
2018-11-12T18:31:49.339Z,15.60
2018-11-12T18:34:18.143Z,14.53
2018-11-12T18:36:47.383Z,15.37
2018-11-12T18:39:16.225Z,16.00
2018-11-12T18:41:45.399Z,18.20
2018-11-12T18:44:14.322Z,20.23
2018-11-12T18:46:43.308Z,13.37
2018-11-12T18:49:12.208Z,15.47
2018-11-12T18:51:44.209Z,17.73
2018-11-12T18:54:13.126Z,15.97
2018-11-12T18:56:42.134Z,15.70
2018-11-12T18:59:10.976Z,15.30
2018-11-12T19:01:40.176Z,17.57
2018-11-12T19:04:09.052Z,15.97
2018-11-12T19:06:37.944Z,17.90
2018-11-12T19:09:08.783Z,15.27
2018-11-12T19:11:37.847Z,19.13
2018-11-12T19:14:07.432Z,17.33
2018-11-12T19:16:36.473Z,17.73
2018-11-12T19:19:05.393Z,17.60
2018-11-12T19:21:34.284Z,15.57
2018-11-12T19:24:03.279Z,16.40
2018-11-12T19:26:32.104Z,16.83
2018-11-12T19:29:01.006Z,15.97
2018-11-12T19:31:29.865Z,14.07
2018-11-12T19:33:59.326Z,18.93
2018-11-12T19:36:28.143Z,20.63
2018-11-12T19:38:57.086Z,17.93
2018-11-12T19:41:26.996Z,17.80
2018-11-12T19:43:56.036Z,13.33
2018-11-12T19:46:24.945Z,17.60
2018-11-12T19:48:54.470Z,14.07
2018-11-12T19:51:23.604Z,15.07
2018-11-12T19:53:53.379Z,17.97
2018-11-12T19:56:23.060Z,16.63
2018-11-12T19:58:52.086Z,16.20
2018-11-12T20:01:21.481Z,17.70
2018-11-12T20:03:50.762Z,17.00
2018-11-12T20:06:21.018Z,16.47
2018-11-12T20:08:50.460Z,17.23
2018-11-12T20:11:19.417Z,16.87
2018-11-12T20:13:48.832Z,16.50
2018-11-12T20:16:17.877Z,17.13
2018-11-12T20:18:47.003Z,17.50
2018-11-12T20:21:16.080Z,15.83
2018-11-12T20:23:46.477Z,19.17
2018-11-12T20:26:15.500Z,13.63
2018-11-12T20:28:44.719Z,16.37
2018-11-12T20:31:14.780Z,17.67
2018-11-12T20:33:43.801Z,15.30
2018-11-12T20:36:13.438Z,17.03
2018-11-12T20:38:42.473Z,17.47
2018-11-12T20:41:11.265Z,16.97
2018-11-12T20:43:40.747Z,15.43
2018-11-12T20:46:09.631Z,23.00
2018-11-12T20:48:38.544Z,15.57
2018-11-12T20:51:07.469Z,16.13
2018-11-12T20:53:36.322Z,16.03
2018-11-12T20:56:06.766Z,14.60
2018-11-12T20:58:36.261Z,15.00
2018-11-12T21:01:05.187Z,15.90
2018-11-12T21:03:34.080Z,17.97
2018-11-12T21:06:03.009Z,15.83
2018-11-12T21:08:32.358Z,14.57
2018-11-12T21:11:01.223Z,14.53
2018-11-12T21:13:30.031Z,13.13
2018-11-12T21:15:59.008Z,14.80
2018-11-12T21:18:27.885Z,18.27
2018-11-12T21:20:56.743Z,17.00
2018-11-12T21:23:25.622Z,15.37
2018-11-12T21:25:54.439Z,14.60
2018-11-12T21:28:23.409Z,15.10
2018-11-12T21:30:52.260Z,17.17
2018-11-12T21:33:21.127Z,14.33
2018-11-12T21:35:50.002Z,16.43
2018-11-12T21:38:18.913Z,13.33
2018-11-12T21:40:47.779Z,11.43
2018-11-12T21:43:16.682Z,12.53
2018-11-12T21:45:45.590Z,15.33
2018-11-12T21:48:14.481Z,13.93
2018-11-12T21:50:43.328Z,11.50
2018-11-12T21:53:12.151Z,12.60
2018-11-12T21:55:41.091Z,10.90
2018-11-12T21:58:09.967Z,13.80
2018-11-12T22:00:38.895Z,12.70
2018-11-12T22:03:07.760Z,11.93
2018-11-12T22:05:36.604Z,12.90
2018-11-12T22:08:06.283Z,13.00
2018-11-12T22:10:35.164Z,13.97
2018-11-12T22:13:04.058Z,14.93
2018-11-12T22:15:32.930Z,9.73
2018-11-12T22:18:01.785Z,13.90
2018-11-12T22:20:30.618Z,15.80
2018-11-12T22:22:59.587Z,10.70
2018-11-12T22:25:28.384Z,10.83
2018-11-12T22:27:57.868Z,14.57
2018-11-12T22:30:27.473Z,13.80
2018-11-12T22:32:56.915Z,12.73
2018-11-12T22:35:25.789Z,14.07
2018-11-12T22:37:54.651Z,11.40
2018-11-12T22:40:23.543Z,11.00
2018-11-12T22:42:53.145Z,10.50
2018-11-12T22:45:23.163Z,13.33
2018-11-12T22:47:52.306Z,9.70
2018-11-12T22:50:21.268Z,11.77
2018-11-12T22:52:50.067Z,12.60
2018-11-12T22:55:19.664Z,10.97
2018-11-12T22:57:48.525Z,9.77
2018-11-12T23:00:24.641Z,13.03
2018-11-12T23:02:53.865Z,10.83
2018-11-12T23:05:23.011Z,11.57
2018-11-12T23:07:52.462Z,9.23
2018-11-12T23:10:21.790Z,9.93
2018-11-12T23:12:50.691Z,10.47
2018-11-12T23:15:19.943Z,9.97
2018-11-12T23:17:48.867Z,12.73
2018-11-12T23:20:20.153Z,11.83
2018-11-12T23:22:49.526Z,9.70
2018-11-12T23:25:18.373Z,10.93
2018-11-12T23:27:47.823Z,11.27
2018-11-12T23:30:17.818Z,10.67
2018-11-12T23:32:46.686Z,10.50
2018-11-12T23:35:22.976Z,9.83
2018-11-12T23:37:52.069Z,9.50
2018-11-12T23:40:20.900Z,10.43
2018-11-12T23:42:49.738Z,11.27
2018-11-12T23:45:18.535Z,12.47
2018-11-12T23:47:47.381Z,12.63
2018-11-12T23:50:19.606Z,10.90
2018-11-12T23:52:49.141Z,12.73
2018-11-12T23:55:18.337Z,11.67
2018-11-12T23:57:47.754Z,11.73
